createdAt,value
2022-10-05T00:00:47.456Z,87.45
2022-10-05T00:01:47.463Z,87.54
2022-10-05T00:02:47.420Z,87.65
2022-10-05T00:03:47.462Z,87.70
2022-10-05T00:04:47.472Z,87.77
2022-10-05T00:05:47.387Z,87.85
2022-10-05T00:06:47.710Z,88.22
2022-10-05T00:07:47.406Z,88.62
2022-10-05T00:08:47.348Z,88.52
2022-10-05T00:09:47.348Z,88.59
2022-10-05T00:10:47.330Z,88.67
2022-10-05T00:11:47.375Z,88.59
2022-10-05T00:12:47.343Z,88.50
2022-10-05T00:13:47.300Z,88.54
2022-10-05T00:14:47.363Z,88.72
2022-10-05T00:15:47.288Z,88.89
2022-10-05T00:16:47.632Z,88.99
2022-10-05T00:17:47.268Z,88.99
2022-10-05T00:18:47.297Z,88.98
2022-10-05T00:19:47.317Z,88.70
2022-10-05T00:20:47.249Z,88.71
2022-10-05T00:21:47.225Z,88.70
2022-10-05T00:22:47.216Z,88.82
2022-10-05T00:23:47.214Z,88.79
2022-10-05T00:24:47.198Z,88.77
2022-10-05T00:25:47.235Z,88.90
2022-10-05T00:26:47.483Z,89.03
2022-10-05T00:27:47.191Z,89.27
2022-10-05T00:28:47.150Z,89.54
2022-10-05T00:29:47.152Z,89.54
2022-10-05T00:30:47.144Z,89.55
2022-10-05T00:31:47.255Z,89.61
2022-10-05T00:32:47.117Z,89.63
2022-10-05T00:33:47.126Z,89.81
2022-10-05T00:34:47.095Z,90.04
2022-10-05T00:35:47.090Z,90.29
2022-10-05T00:36:47.401Z,90.36
2022-10-05T00:37:47.109Z,90.36
2022-10-05T00:38:47.049Z,90.40
2022-10-05T00:39:47.064Z,90.40
2022-10-05T00:40:47.032Z,90.33
2022-10-05T00:41:47.031Z,90.18
2022-10-05T00:42:47.072Z,90.08
2022-10-05T00:43:47.047Z,89.92
2022-10-05T00:44:47.052Z,89.75
2022-10-05T00:45:47.035Z,89.55
2022-10-05T00:46:47.287Z,89.57
2022-10-05T00:47:46.966Z,89.65
2022-10-05T00:48:46.956Z,89.74
2022-10-05T00:49:46.968Z,89.77
2022-10-05T00:50:46.988Z,89.73
2022-10-05T00:51:46.932Z,89.67
2022-10-05T00:52:46.913Z,89.83
2022-10-05T00:53:46.905Z,89.97
2022-10-05T00:54:46.941Z,90.14
2022-10-05T00:55:46.897Z,90.22
2022-10-05T00:56:47.347Z,90.31
2022-10-05T00:57:46.877Z,90.45
2022-10-05T00:58:46.856Z,90.53
2022-10-05T00:59:46.894Z,90.64
2022-10-05T01:02:04.541Z,90.52
2022-10-05T01:03:05.433Z,91.01
2022-10-05T01:04:05.423Z,91.08
2022-10-05T01:05:05.453Z,91.13
2022-10-05T01:06:05.385Z,91.16
2022-10-05T01:07:05.392Z,91.18
2022-10-05T01:08:05.367Z,91.20
2022-10-05T01:09:05.367Z,91.21
2022-10-05T01:10:05.357Z,91.22
2022-10-05T01:11:05.408Z,91.25
2022-10-05T01:12:05.332Z,91.28
2022-10-05T01:13:05.333Z,91.33
2022-10-05T01:14:05.357Z,91.36
2022-10-05T01:15:05.308Z,91.39
2022-10-05T01:16:05.453Z,91.44
2022-10-05T01:17:05.288Z,91.48
2022-10-05T01:18:05.310Z,91.53
2022-10-05T01:19:05.271Z,91.57
2022-10-05T01:20:05.250Z,91.59
2022-10-05T01:21:05.256Z,91.61
2022-10-05T01:22:05.289Z,91.60
2022-10-05T01:23:05.292Z,91.59
2022-10-05T01:24:05.222Z,91.61
2022-10-05T01:25:05.203Z,91.63
2022-10-05T01:26:05.197Z,91.65
2022-10-05T01:27:05.250Z,91.68
2022-10-05T01:28:05.303Z,91.75
2022-10-05T01:29:05.162Z,91.77
2022-10-05T01:30:05.155Z,91.78
2022-10-05T01:31:05.191Z,91.82
2022-10-05T01:32:05.151Z,91.81
2022-10-05T01:33:05.175Z,91.81
2022-10-05T01:34:10.579Z,91.80
2022-10-05T01:35:05.118Z,91.82
2022-10-05T01:36:05.163Z,91.81
2022-10-05T01:37:05.083Z,91.83
2022-10-05T01:38:05.100Z,91.86
2022-10-05T01:39:05.129Z,91.91
2022-10-05T01:40:05.116Z,91.94
2022-10-05T01:41:05.042Z,92.00
2022-10-05T01:42:05.037Z,92.03
2022-10-05T01:43:05.087Z,92.07
2022-10-05T01:44:05.017Z,92.08
2022-10-05T01:45:05.004Z,92.14
2022-10-05T01:46:05.224Z,92.18
2022-10-05T01:47:04.983Z,92.22
2022-10-05T01:48:05.075Z,92.27
2022-10-05T01:49:04.965Z,92.27
2022-10-05T01:50:04.966Z,92.29
2022-10-05T01:51:04.950Z,92.33
2022-10-05T01:52:04.944Z,92.36
2022-10-05T01:53:04.932Z,92.36
2022-10-05T01:54:04.966Z,92.38
2022-10-05T01:55:04.926Z,92.40
2022-10-05T01:56:04.898Z,92.41
2022-10-05T01:57:04.884Z,92.40
2022-10-05T01:58:04.898Z,92.44
2022-10-05T01:59:04.885Z,92.44
2022-10-05T02:00:04.952Z,92.46
2022-10-05T02:01:04.933Z,92.50
2022-10-05T02:02:04.874Z,92.51
2022-10-05T02:03:04.827Z,92.49
2022-10-05T02:04:04.861Z,92.52
2022-10-05T02:05:04.821Z,92.54
2022-10-05T02:06:04.807Z,92.54
2022-10-05T02:07:04.827Z,92.57
2022-10-05T02:08:04.788Z,92.57
2022-10-05T02:09:04.765Z,92.59
2022-10-05T02:10:04.808Z,92.60
2022-10-05T02:11:04.762Z,92.60
2022-10-05T02:12:04.740Z,92.61
2022-10-05T02:13:04.722Z,92.61
2022-10-05T02:14:04.729Z,92.61
2022-10-05T02:15:04.867Z,92.61
2022-10-05T02:16:04.753Z,92.62
2022-10-05T02:17:04.695Z,92.59
2022-10-05T02:18:04.684Z,92.60
2022-10-05T02:19:04.665Z,92.62
2022-10-05T02:20:04.675Z,92.62
2022-10-05T02:21:04.690Z,92.61
2022-10-05T02:22:04.689Z,92.62
2022-10-05T02:23:04.632Z,92.62
2022-10-05T02:24:04.617Z,92.63
2022-10-05T02:25:04.606Z,92.62
2022-10-05T02:26:04.605Z,92.62
2022-10-05T02:27:04.642Z,92.64
2022-10-05T02:28:04.651Z,92.64
2022-10-05T02:29:04.569Z,92.63
2022-10-05T02:30:04.564Z,92.65
2022-10-05T02:31:04.619Z,92.64
2022-10-05T02:32:04.546Z,92.66
2022-10-05T02:33:04.573Z,92.65
2022-10-05T02:34:04.534Z,92.67
2022-10-05T02:35:04.520Z,92.68
2022-10-05T02:36:04.522Z,92.70
2022-10-05T02:37:04.547Z,92.68
2022-10-05T02:38:04.491Z,92.70
2022-10-05T02:39:04.466Z,92.71
2022-10-05T02:40:04.466Z,92.71
2022-10-05T02:41:04.452Z,92.70
2022-10-05T02:42:04.453Z,92.69
2022-10-05T02:43:04.482Z,92.69
2022-10-05T02:44:04.423Z,92.64
2022-10-05T02:45:04.475Z,92.66
2022-10-05T02:46:04.487Z,92.63
2022-10-05T02:47:04.397Z,92.60
2022-10-05T02:48:04.434Z,92.59
2022-10-05T02:49:04.434Z,92.58
2022-10-05T02:50:04.367Z,92.56
2022-10-05T02:51:04.350Z,92.51
2022-10-05T02:52:04.343Z,92.45
2022-10-05T02:53:04.331Z,92.39
2022-10-05T02:54:04.330Z,92.33
2022-10-05T02:55:04.363Z,92.28
2022-10-05T02:56:04.306Z,92.22
2022-10-05T02:57:04.286Z,92.16
2022-10-05T02:58:04.288Z,92.09
2022-10-05T02:59:04.320Z,92.04
2022-10-05T03:00:04.274Z,92.02
2022-10-05T03:01:04.323Z,92.00
2022-10-05T03:02:04.278Z,91.94
2022-10-05T03:03:04.278Z,91.87
2022-10-05T03:04:04.234Z,91.81
2022-10-05T03:05:04.227Z,91.79
2022-10-05T03:06:04.264Z,91.80
2022-10-05T03:07:04.202Z,91.76
2022-10-05T03:08:04.188Z,91.67
2022-10-05T03:09:04.404Z,91.50
2022-10-05T03:10:04.173Z,91.25
2022-10-05T03:11:04.164Z,90.96
2022-10-05T03:12:04.204Z,90.69
2022-10-05T03:13:04.135Z,90.46
2022-10-05T03:14:04.135Z,90.36
2022-10-05T03:15:04.124Z,90.25
2022-10-05T03:16:04.173Z,90.16
2022-10-05T03:17:04.089Z,90.46
2022-10-05T03:18:04.145Z,90.64
2022-10-05T03:19:04.076Z,90.77
2022-10-05T03:20:04.069Z,90.85
2022-10-05T03:21:04.066Z,91.02
2022-10-05T03:22:04.046Z,91.12
2022-10-05T03:23:04.037Z,91.11
2022-10-05T03:24:04.071Z,91.10
2022-10-05T03:25:04.019Z,91.21
2022-10-05T03:26:04.009Z,91.34
2022-10-05T03:27:03.999Z,91.50
2022-10-05T03:28:04.080Z,91.59
2022-10-05T03:29:04.019Z,91.64
2022-10-05T03:30:03.971Z,91.71
2022-10-05T03:31:04.030Z,91.72
2022-10-05T03:32:03.956Z,91.77
2022-10-05T03:33:03.999Z,91.84
2022-10-05T03:34:03.970Z,91.88
2022-10-05T03:35:03.967Z,91.93
2022-10-05T03:36:03.924Z,91.98
2022-10-05T03:37:03.898Z,92.04
2022-10-05T03:38:03.884Z,92.07
2022-10-05T03:39:03.881Z,92.09
2022-10-05T03:40:03.863Z,92.10
2022-10-05T03:41:03.903Z,92.08
2022-10-05T03:42:03.851Z,92.09
2022-10-05T03:43:03.835Z,92.16
2022-10-05T03:44:03.884Z,92.21
2022-10-05T03:45:03.834Z,92.26
2022-10-05T03:46:03.886Z,92.23
2022-10-05T03:47:03.802Z,92.22
2022-10-05T03:48:03.825Z,92.20
2022-10-05T03:49:03.819Z,92.19
2022-10-05T03:50:03.776Z,92.22
2022-10-05T03:51:03.759Z,92.26
2022-10-05T03:52:03.750Z,92.28
2022-10-05T03:53:03.789Z,92.26
2022-10-05T03:54:03.796Z,92.25
2022-10-05T03:55:03.718Z,92.24
2022-10-05T03:56:03.712Z,92.23
2022-10-05T03:57:03.713Z,92.20
2022-10-05T03:58:03.687Z,92.22
2022-10-05T03:59:03.707Z,92.20
2022-10-05T04:00:03.725Z,92.17
2022-10-05T04:01:03.655Z,92.17
2022-10-05T04:02:03.690Z,92.14
2022-10-05T04:03:03.718Z,92.11
2022-10-05T04:04:03.642Z,92.07
2022-10-05T04:05:03.662Z,92.03
2022-10-05T04:06:03.609Z,91.98
2022-10-05T04:07:03.674Z,91.91
2022-10-05T04:08:03.643Z,91.86
2022-10-05T04:09:03.646Z,91.82
2022-10-05T04:10:03.581Z,91.78
2022-10-05T04:11:03.555Z,91.73
2022-10-05T04:12:03.575Z,91.68
2022-10-05T04:13:03.533Z,91.65
2022-10-05T04:14:03.585Z,91.60
2022-10-05T04:15:03.516Z,91.57
2022-10-05T04:16:03.568Z,91.58
2022-10-05T04:17:03.502Z,91.62
2022-10-05T04:18:03.538Z,91.66
2022-10-05T04:19:03.506Z,91.69
2022-10-05T04:20:03.519Z,91.71
2022-10-05T04:21:03.460Z,91.73
2022-10-05T04:22:03.463Z,91.76
2022-10-05T04:23:03.443Z,91.78
2022-10-05T04:24:03.486Z,91.77
2022-10-05T04:25:03.427Z,91.79
2022-10-05T04:26:03.411Z,91.77
2022-10-05T04:27:03.398Z,91.78
2022-10-05T04:28:03.485Z,91.81
2022-10-05T04:29:03.379Z,91.84
2022-10-05T04:30:03.503Z,91.87
2022-10-05T04:31:03.440Z,91.88
2022-10-05T04:32:03.350Z,91.90
2022-10-05T04:33:03.344Z,91.89
2022-10-05T04:34:03.345Z,91.87
2022-10-05T04:35:03.319Z,91.84
2022-10-05T04:36:03.366Z,91.82
2022-10-05T04:37:03.307Z,91.82
2022-10-05T04:38:03.292Z,91.84
2022-10-05T04:39:03.278Z,91.87
2022-10-05T04:40:03.303Z,91.87
2022-10-05T04:41:03.264Z,91.87
2022-10-05T04:42:03.316Z,91.91
2022-10-05T04:43:03.249Z,91.97
2022-10-05T04:44:03.230Z,92.04
2022-10-05T04:45:03.216Z,92.10
2022-10-05T04:46:03.220Z,92.15
2022-10-05T04:47:03.294Z,92.19
2022-10-05T04:48:03.241Z,92.20
2022-10-05T04:49:03.197Z,92.21
2022-10-05T04:50:03.187Z,92.20
2022-10-05T04:51:03.167Z,92.23
2022-10-05T04:52:03.202Z,92.23
2022-10-05T04:53:03.101Z,92.26
2022-10-05T04:54:03.194Z,92.28
2022-10-05T04:55:03.128Z,92.32
2022-10-05T04:56:03.142Z,92.35
2022-10-05T04:57:03.057Z,92.41
2022-10-05T04:58:03.048Z,92.47
2022-10-05T04:59:03.028Z,92.51
2022-10-05T05:00:03.111Z,92.55
2022-10-05T05:01:03.131Z,92.57
2022-10-05T05:02:03.003Z,92.57
2022-10-05T05:03:02.994Z,92.60
2022-10-05T05:04:03.034Z,92.61
2022-10-05T05:05:02.967Z,92.64
2022-10-05T05:06:17.045Z,92.64
2022-10-05T05:07:02.955Z,92.66
2022-10-05T05:08:02.946Z,92.68
2022-10-05T05:09:02.930Z,92.69
2022-10-05T05:10:02.918Z,92.69
2022-10-05T05:11:02.912Z,92.68
2022-10-05T05:12:02.955Z,92.70
2022-10-05T05:13:02.893Z,92.69
2022-10-05T05:14:02.884Z,92.69
2022-10-05T05:15:02.867Z,92.68
2022-10-05T05:16:02.986Z,92.66
2022-10-05T05:17:02.856Z,92.66
2022-10-05T05:18:02.843Z,92.62
2022-10-05T05:19:02.835Z,92.59
2022-10-05T05:20:02.825Z,92.59
2022-10-05T05:21:02.858Z,92.57
2022-10-05T05:22:02.813Z,92.55
2022-10-05T05:23:02.789Z,92.52
2022-10-05T05:24:02.782Z,92.51
2022-10-05T05:25:02.778Z,92.49
2022-10-05T05:26:02.807Z,92.45
2022-10-05T05:27:02.827Z,92.44
2022-10-05T05:28:02.779Z,92.41
2022-10-05T05:29:02.732Z,92.40
2022-10-05T05:30:02.735Z,92.38
2022-10-05T05:31:02.756Z,92.38
2022-10-05T05:32:02.755Z,92.37
2022-10-05T05:33:02.692Z,92.38
2022-10-05T05:34:02.679Z,92.39
2022-10-05T05:35:02.718Z,92.43
2022-10-05T05:36:02.712Z,92.47
2022-10-05T05:37:02.669Z,92.49
2022-10-05T05:38:02.643Z,92.51
2022-10-05T05:39:02.635Z,92.52
2022-10-05T05:40:02.672Z,92.56
2022-10-05T05:41:02.617Z,92.53
2022-10-05T05:42:02.599Z,92.56
2022-10-05T05:43:02.643Z,92.58
2022-10-05T05:44:02.593Z,92.58
2022-10-05T05:45:02.575Z,92.57
2022-10-05T05:46:02.613Z,92.55
2022-10-05T05:47:04.548Z,92.54
2022-10-05T05:48:02.593Z,92.52
2022-10-05T05:49:02.578Z,92.54
2022-10-05T05:50:07.014Z,92.54
2022-10-05T05:51:02.566Z,92.52
2022-10-05T05:52:02.508Z,92.51
2022-10-05T05:53:02.503Z,92.51
2022-10-05T05:54:02.543Z,92.47
2022-10-05T05:55:02.533Z,92.44
2022-10-05T05:56:02.522Z,92.39
2022-10-05T05:57:02.455Z,92.35
2022-10-05T05:58:02.465Z,92.30
2022-10-05T05:59:02.454Z,92.25
2022-10-05T06:00:02.476Z,92.21
2022-10-05T06:01:02.417Z,92.18
2022-10-05T06:02:02.501Z,92.16
2022-10-05T06:03:02.594Z,92.11
2022-10-05T06:04:02.394Z,92.06
2022-10-05T06:05:02.402Z,92.04
2022-10-05T06:06:02.409Z,92.02
2022-10-05T06:07:02.360Z,91.99
2022-10-05T06:08:02.355Z,91.97
2022-10-05T06:09:02.381Z,91.96
2022-10-05T06:10:02.383Z,91.89
2022-10-05T06:11:02.374Z,91.88
2022-10-05T06:12:02.351Z,91.84
2022-10-05T06:13:02.307Z,91.76
2022-10-05T06:14:02.288Z,91.72
2022-10-05T06:15:02.284Z,91.69
2022-10-05T06:16:02.390Z,91.67
2022-10-05T06:17:02.273Z,91.63
2022-10-05T06:18:02.249Z,91.61
2022-10-05T06:19:02.266Z,91.68
2022-10-05T06:20:05.349Z,91.77
2022-10-05T06:21:02.220Z,91.83
2022-10-05T06:22:02.277Z,91.91
2022-10-05T06:23:02.220Z,91.96
2022-10-05T06:24:02.186Z,92.03
2022-10-05T06:25:02.179Z,92.10
2022-10-05T06:26:02.535Z,92.15
2022-10-05T06:27:02.368Z,92.20
2022-10-05T06:28:02.248Z,92.25
2022-10-05T06:29:02.154Z,92.26
2022-10-05T06:30:02.130Z,92.29
2022-10-05T06:31:02.169Z,92.34
2022-10-05T06:32:02.143Z,92.35
2022-10-05T06:33:02.140Z,92.34
2022-10-05T06:34:02.141Z,92.37
2022-10-05T06:35:02.080Z,92.39
2022-10-05T06:36:02.064Z,92.41
2022-10-05T06:37:02.059Z,92.50
2022-10-05T06:38:02.094Z,92.57
2022-10-05T06:39:02.040Z,92.65
2022-10-05T06:40:02.093Z,92.71
2022-10-05T06:41:02.018Z,92.74
2022-10-05T06:42:02.088Z,92.80
2022-10-05T06:43:01.997Z,92.84
2022-10-05T06:44:02.037Z,92.88
2022-10-05T06:45:01.991Z,92.90
2022-10-05T06:46:02.007Z,92.90
2022-10-05T06:47:02.004Z,92.93
2022-10-05T06:48:05.412Z,92.93
2022-10-05T06:49:01.943Z,92.95
2022-10-05T06:50:01.967Z,92.98
2022-10-05T06:51:01.929Z,92.98
2022-10-05T06:52:01.917Z,92.98
2022-10-05T06:53:02.055Z,92.95
2022-10-05T06:54:01.896Z,92.93
2022-10-05T06:55:01.885Z,92.91
2022-10-05T06:56:01.918Z,92.94
2022-10-05T06:57:01.878Z,92.93
2022-10-05T06:58:01.852Z,92.92
2022-10-05T06:59:01.853Z,92.95
2022-10-05T07:00:01.918Z,92.94
2022-10-05T07:01:01.876Z,92.95
2022-10-05T07:02:01.911Z,92.96
2022-10-05T07:03:01.811Z,92.96
2022-10-05T07:04:01.828Z,92.95
2022-10-05T07:05:01.783Z,92.97
2022-10-05T07:06:01.777Z,92.97
2022-10-05T07:07:01.759Z,92.97
2022-10-05T07:08:01.792Z,92.97
2022-10-05T07:09:01.744Z,92.97
2022-10-05T07:10:01.777Z,92.96
2022-10-05T07:11:01.738Z,92.97
2022-10-05T07:12:05.225Z,92.94
2022-10-05T07:13:01.874Z,92.92
2022-10-05T07:14:01.694Z,92.92
2022-10-05T07:15:01.687Z,92.88
2022-10-05T07:16:01.733Z,92.87
2022-10-05T07:17:01.708Z,92.81
2022-10-05T07:18:01.691Z,92.79
2022-10-05T07:19:01.692Z,92.74
2022-10-05T07:20:01.633Z,92.66
2022-10-05T07:21:01.631Z,92.52
2022-10-05T07:22:01.663Z,92.43
2022-10-05T07:23:01.684Z,92.28
2022-10-05T07:24:01.609Z,92.19
2022-10-05T07:25:01.606Z,92.05
2022-10-05T07:26:01.569Z,91.89
2022-10-05T07:27:01.566Z,91.72
2022-10-05T07:28:01.771Z,91.44
2022-10-05T07:29:01.602Z,91.21
2022-10-05T07:30:01.545Z,90.98
2022-10-05T07:31:01.556Z,90.62
2022-10-05T07:32:01.508Z,90.53
2022-10-05T07:33:01.628Z,90.34
2022-10-05T07:34:01.533Z,90.20
2022-10-05T07:35:01.489Z,89.97
2022-10-05T07:36:01.474Z,89.51
2022-10-05T07:37:01.463Z,89.10
2022-10-05T07:38:01.513Z,88.99
2022-10-05T07:39:01.493Z,88.92
2022-10-05T07:40:01.674Z,88.86
2022-10-05T07:41:01.436Z,88.56
2022-10-05T07:42:01.415Z,88.27
2022-10-05T07:43:01.466Z,88.21
2022-10-05T07:44:02.989Z,88.12
2022-10-05T07:45:01.391Z,87.50
2022-10-05T07:46:01.428Z,87.62
2022-10-05T07:47:01.374Z,87.76
2022-10-05T07:48:01.391Z,87.63
2022-10-05T07:49:01.335Z,86.92
2022-10-05T07:50:01.387Z,86.71
2022-10-05T07:51:01.334Z,86.76
2022-10-05T07:52:01.307Z,86.47
2022-10-05T07:53:01.309Z,85.97
2022-10-05T07:54:01.345Z,85.86
2022-10-05T07:55:01.329Z,85.67
2022-10-05T07:56:01.264Z,85.65
2022-10-05T07:57:01.267Z,85.57
2022-10-05T07:58:01.266Z,85.07
2022-10-05T07:59:01.278Z,85.28
2022-10-05T08:00:01.282Z,85.20
2022-10-05T08:01:01.261Z,85.10
2022-10-05T08:02:01.349Z,84.57
2022-10-05T08:03:01.316Z,84.57
2022-10-05T08:04:01.249Z,84.51
2022-10-05T08:05:01.185Z,84.10
2022-10-05T08:06:01.170Z,83.79
2022-10-05T08:07:01.180Z,84.00
2022-10-05T08:08:01.165Z,83.94
2022-10-05T08:09:01.164Z,83.76
2022-10-05T08:10:01.276Z,83.62
2022-10-05T08:11:01.268Z,83.48
2022-10-05T08:12:01.161Z,83.33
2022-10-05T08:13:01.141Z,82.65
2022-10-05T08:14:01.087Z,82.74
2022-10-05T08:15:01.135Z,82.61
2022-10-05T08:16:01.114Z,82.39
2022-10-05T08:17:01.065Z,82.37
2022-10-05T08:18:01.048Z,81.89
2022-10-05T08:19:01.037Z,81.37
2022-10-05T08:20:01.098Z,81.28
2022-10-05T08:21:01.023Z,81.40
2022-10-05T08:22:01.033Z,81.02
2022-10-05T08:23:01.006Z,81.27
2022-10-05T08:24:00.989Z,80.94
2022-10-05T08:25:00.976Z,81.49
2022-10-05T08:26:01.052Z,81.50
2022-10-05T08:27:01.015Z,80.81
2022-10-05T08:28:01.574Z,80.81
2022-10-05T08:29:00.947Z,81.13
2022-10-05T08:30:00.997Z,80.98
2022-10-05T08:31:00.982Z,80.62
2022-10-05T08:32:00.903Z,81.06
2022-10-05T08:33:01.069Z,81.18
2022-10-05T08:34:00.890Z,81.20
2022-10-05T08:35:00.917Z,80.81
2022-10-05T08:36:00.925Z,80.34
2022-10-05T08:37:00.902Z,80.03
2022-10-05T08:38:01.003Z,80.36
2022-10-05T08:39:00.842Z,80.05
2022-10-05T08:40:00.868Z,80.27
2022-10-05T08:41:00.872Z,79.62
2022-10-05T08:42:00.808Z,79.80
2022-10-05T08:43:00.826Z,79.61
2022-10-05T08:44:00.820Z,78.68
2022-10-05T08:45:00.829Z,78.38
2022-10-05T08:46:00.816Z,78.19
2022-10-05T08:47:00.792Z,78.27
2022-10-05T08:48:00.757Z,78.53
2022-10-05T08:49:00.767Z,78.54
2022-10-05T08:50:00.745Z,78.20
2022-10-05T08:51:01.055Z,77.89
2022-10-05T08:52:00.702Z,78.20
2022-10-05T08:53:00.702Z,78.21
2022-10-05T08:54:00.703Z,78.44
2022-10-05T08:55:00.689Z,77.85
2022-10-05T08:56:00.669Z,78.29
2022-10-05T08:57:00.687Z,77.73
2022-10-05T08:58:00.666Z,77.80
2022-10-05T08:59:00.664Z,77.84
2022-10-05T09:00:00.623Z,76.96
2022-10-05T09:01:00.698Z,77.01
2022-10-05T09:02:00.605Z,76.77
2022-10-05T09:03:00.818Z,76.64
2022-10-05T09:04:00.601Z,75.52
2022-10-05T09:05:00.601Z,75.03
2022-10-05T09:06:00.563Z,75.07
2022-10-05T09:07:00.564Z,75.32
2022-10-05T09:08:00.572Z,75.08
2022-10-05T09:09:00.540Z,75.04
2022-10-05T09:10:01.836Z,74.12
2022-10-05T09:11:00.519Z,73.97
2022-10-05T09:12:00.504Z,74.27
2022-10-05T09:13:00.509Z,73.93
2022-10-05T09:14:00.551Z,74.97
2022-10-05T09:15:24.146Z,74.45
2022-10-05T09:16:00.539Z,74.15
2022-10-05T09:17:00.496Z,74.81
2022-10-05T09:18:00.488Z,75.34
2022-10-05T09:19:00.489Z,74.72
2022-10-05T09:20:00.444Z,73.75
2022-10-05T09:21:00.443Z,72.74
2022-10-05T09:22:00.420Z,72.89
2022-10-05T09:23:00.424Z,72.70
2022-10-05T09:24:00.391Z,72.89
2022-10-05T09:25:00.401Z,73.11
2022-10-05T09:26:00.368Z,72.76
2022-10-05T09:27:00.364Z,72.67
2022-10-05T09:28:00.409Z,72.24
2022-10-05T09:29:00.346Z,72.11
2022-10-05T09:30:00.343Z,72.03
2022-10-05T09:31:00.390Z,72.19
2022-10-05T09:32:00.317Z,71.97
2022-10-05T09:33:00.304Z,72.33
2022-10-05T09:34:00.292Z,72.21
2022-10-05T09:35:00.283Z,72.26
2022-10-05T09:36:00.291Z,72.94
2022-10-05T09:37:00.263Z,72.42
2022-10-05T09:38:00.321Z,71.98
2022-10-05T09:39:00.239Z,71.52
2022-10-05T09:40:01.446Z,71.65
2022-10-05T09:41:00.264Z,71.63
2022-10-05T09:42:00.225Z,71.01
2022-10-05T09:43:00.213Z,70.90
2022-10-05T09:44:00.189Z,71.30
2022-10-05T09:45:00.185Z,70.79
2022-10-05T09:46:00.350Z,71.02
2022-10-05T09:47:00.165Z,71.54
2022-10-05T09:48:00.206Z,71.38
2022-10-05T09:49:00.144Z,71.35
2022-10-05T09:50:00.208Z,71.09
2022-10-05T09:51:00.168Z,71.41
2022-10-05T09:52:00.112Z,72.19
2022-10-05T09:53:00.101Z,72.29
2022-10-05T09:54:00.094Z,71.37
2022-10-05T09:55:00.083Z,70.60
2022-10-05T09:56:00.085Z,70.20
2022-10-05T09:57:00.116Z,70.72
2022-10-05T09:58:00.053Z,69.87
2022-10-05T09:59:00.039Z,71.27
2022-10-05T10:00:00.096Z,70.33
2022-10-05T10:01:09.020Z,70.57
2022-10-05T10:02:00.151Z,69.77
2022-10-05T10:03:00.206Z,70.07
2022-10-05T10:03:59.996Z,69.97
2022-10-05T10:04:59.983Z,69.71
2022-10-05T10:05:59.981Z,69.23
2022-10-05T10:06:59.961Z,69.21
2022-10-05T10:08:00.008Z,68.88
2022-10-05T10:08:59.942Z,67.90
2022-10-05T10:09:59.996Z,67.75
2022-10-05T10:10:59.923Z,67.31
2022-10-05T10:11:59.918Z,67.66
2022-10-05T10:12:59.951Z,67.69
2022-10-05T10:13:59.903Z,67.00
2022-10-05T10:15:02.863Z,66.75
2022-10-05T10:15:59.989Z,67.41
2022-10-05T10:16:59.881Z,66.40
2022-10-05T10:17:59.905Z,66.86
2022-10-05T10:18:59.907Z,67.04
2022-10-05T10:19:59.844Z,67.39
2022-10-05T10:20:59.825Z,67.92
2022-10-05T10:21:59.820Z,67.47
2022-10-05T10:22:59.866Z,67.02
2022-10-05T10:23:59.799Z,65.99
2022-10-05T10:24:59.794Z,66.37
2022-10-05T10:25:59.785Z,66.31
2022-10-05T10:26:59.769Z,66.95
2022-10-05T10:27:59.810Z,67.66
2022-10-05T10:28:59.805Z,67.03
2022-10-05T10:29:59.740Z,66.60
2022-10-05T10:30:59.769Z,65.55
2022-10-05T10:31:59.743Z,66.39
2022-10-05T10:32:59.725Z,67.44
2022-10-05T10:33:59.753Z,65.82
2022-10-05T10:34:59.740Z,65.43
2022-10-05T10:36:02.968Z,64.86
2022-10-05T10:36:59.682Z,64.31
2022-10-05T10:37:59.727Z,63.95
2022-10-05T10:38:59.657Z,63.42
2022-10-05T10:39:59.701Z,62.97
2022-10-05T10:40:59.632Z,63.11
2022-10-05T10:41:59.673Z,62.62
2022-10-05T10:42:59.613Z,62.19
2022-10-05T10:43:59.603Z,62.41
2022-10-05T10:44:59.638Z,62.22
2022-10-05T10:45:59.664Z,62.72
2022-10-05T10:46:59.670Z,62.75
2022-10-05T10:47:59.566Z,61.68
2022-10-05T10:48:59.553Z,62.03
2022-10-05T10:49:59.761Z,62.17
2022-10-05T10:50:59.534Z,61.97
2022-10-05T10:51:59.577Z,62.06
2022-10-05T10:52:59.575Z,61.74
2022-10-05T10:53:59.580Z,61.78
2022-10-05T10:54:59.520Z,61.47
2022-10-05T10:55:59.495Z,61.59
2022-10-05T10:56:59.483Z,61.32
2022-10-05T10:57:59.466Z,60.89
2022-10-05T10:58:59.457Z,61.13
2022-10-05T10:59:59.500Z,61.11
2022-10-05T11:00:59.481Z,61.05
2022-10-05T11:01:59.506Z,60.48
2022-10-05T11:02:59.477Z,60.74
2022-10-05T11:03:59.408Z,60.45
2022-10-05T11:04:59.403Z,60.18
2022-10-05T11:05:59.462Z,60.25
2022-10-05T11:06:59.373Z,59.85
2022-10-05T11:07:59.390Z,59.94
2022-10-05T11:08:59.360Z,59.97
2022-10-05T11:09:59.408Z,59.87
2022-10-05T11:10:59.344Z,59.93
2022-10-05T11:11:59.343Z,60.61
2022-10-05T11:12:59.325Z,61.42
2022-10-05T11:13:59.314Z,60.77
2022-10-05T11:14:59.309Z,61.12
2022-10-05T11:15:59.400Z,61.10
2022-10-05T11:16:59.329Z,60.63
2022-10-05T11:17:59.275Z,60.29
2022-10-05T11:18:59.307Z,59.70
2022-10-05T11:20:04.180Z,59.23
2022-10-05T11:20:59.304Z,58.92
2022-10-05T11:21:59.246Z,58.06
2022-10-05T11:22:59.421Z,58.11
2022-10-05T11:23:59.233Z,57.92
2022-10-05T11:24:59.202Z,58.24
2022-10-05T11:25:59.192Z,59.50
2022-10-05T11:26:59.196Z,59.81
2022-10-05T11:27:59.281Z,60.10
2022-10-05T11:28:59.263Z,60.27
2022-10-05T11:29:59.152Z,59.65
2022-10-05T11:30:59.182Z,59.65
2022-10-05T11:31:59.138Z,59.02
2022-10-05T11:32:59.123Z,57.64
2022-10-05T11:33:59.166Z,57.46
2022-10-05T11:34:59.256Z,57.74
2022-10-05T11:35:59.102Z,58.45
2022-10-05T11:36:59.080Z,59.05
2022-10-05T11:37:59.082Z,59.04
2022-10-05T11:38:59.063Z,58.56
2022-10-05T11:39:59.086Z,57.50
2022-10-05T11:40:59.101Z,56.89
2022-10-05T11:41:59.050Z,56.33
2022-10-05T11:42:59.040Z,56.51
2022-10-05T11:44:03.132Z,56.48
2022-10-05T11:44:59.053Z,56.20
2022-10-05T11:45:59.146Z,56.38
2022-10-05T11:46:58.988Z,57.13
2022-10-05T11:47:58.978Z,56.73
2022-10-05T11:48:59.006Z,57.77
2022-10-05T11:49:59.205Z,57.76
2022-10-05T11:50:58.948Z,58.02
2022-10-05T11:51:58.948Z,58.12
2022-10-05T11:52:58.931Z,59.18
2022-10-05T11:53:58.918Z,58.66
2022-10-05T11:55:10.453Z,57.99
2022-10-05T11:55:58.904Z,57.72
2022-10-05T11:56:59.234Z,58.94
2022-10-05T11:57:58.888Z,59.18
2022-10-05T11:58:58.958Z,59.03
2022-10-05T11:59:58.864Z,57.76
2022-10-05T12:00:58.853Z,57.17
2022-10-05T12:01:58.886Z,57.17
2022-10-05T12:02:59.012Z,56.52
2022-10-05T12:03:58.984Z,57.04
2022-10-05T12:04:58.810Z,56.47
2022-10-05T12:05:58.855Z,57.03
2022-10-05T12:06:58.793Z,57.19
2022-10-05T12:07:58.830Z,57.37
2022-10-05T12:08:58.773Z,57.62
2022-10-05T12:09:58.818Z,57.06
2022-10-05T12:10:58.754Z,57.07
2022-10-05T12:11:58.743Z,55.55
2022-10-05T12:12:58.946Z,55.51
2022-10-05T12:13:58.742Z,55.78
2022-10-05T12:14:58.718Z,57.12
2022-10-05T12:15:58.803Z,59.01
2022-10-05T12:16:58.695Z,58.32
2022-10-05T12:17:58.694Z,56.93
2022-10-05T12:18:58.682Z,56.98
2022-10-05T12:19:58.668Z,57.81
2022-10-05T12:20:58.712Z,58.44
2022-10-05T12:21:58.644Z,57.68
2022-10-05T12:22:59.020Z,56.66
2022-10-05T12:23:58.681Z,56.26
2022-10-05T12:24:58.611Z,56.40
2022-10-05T12:25:58.607Z,55.79
2022-10-05T12:26:58.598Z,55.45
2022-10-05T12:27:58.618Z,55.38
2022-10-05T12:28:58.591Z,56.09
2022-10-05T12:29:58.620Z,55.07
2022-10-05T12:30:58.651Z,54.92
2022-10-05T12:31:58.560Z,56.79
2022-10-05T12:33:02.078Z,56.76
2022-10-05T12:33:58.534Z,56.96
2022-10-05T12:35:01.685Z,57.18
2022-10-05T12:35:58.507Z,57.29
2022-10-05T12:37:04.166Z,56.90
2022-10-05T12:37:58.513Z,56.88
2022-10-05T12:38:58.477Z,56.71
2022-10-05T12:39:58.540Z,55.79
2022-10-05T12:40:58.498Z,55.81
2022-10-05T12:41:58.475Z,55.32
2022-10-05T12:42:58.456Z,55.52
2022-10-05T12:43:58.484Z,55.35
2022-10-05T12:44:58.512Z,55.19
2022-10-05T12:45:58.522Z,53.90
2022-10-05T12:46:58.834Z,52.80
2022-10-05T12:47:58.423Z,52.45
2022-10-05T12:48:58.386Z,53.11
2022-10-05T12:49:58.391Z,52.92
2022-10-05T12:50:58.413Z,53.14
2022-10-05T12:51:58.378Z,52.26
2022-10-05T12:52:58.344Z,53.36
2022-10-05T12:53:58.339Z,52.96